Ellis, Indiana
Current Conditions -  °F | °C
As of 12:35 AM on Thursday 18 Dec 2014 (Local Time) from KRSV Reporting Station
Overcast Overcast  
Wind Chill: 17°   Ceiling: 1400
Heat Index: 25°   Visibility: 10mi
Dew Point: 22°   Wind: 8mph
Humidity: 86%   Direction: 30°NNE
Pressure: 30.33"   Gusts: NA
Location:  39.0631°N, 87.2571°W
Report Text: KRSV 180535Z AUTO 03007KT 10SM OVC014 M04/M06 A3033 RMK AO2 T10371057
Loading
Personal Weather Stations






























Interactive Weather Map New forecast layout! Learn more

10-Day Weather Forecast

Advertisements
Track Severe Weather on mobile